sensor_id;sensor_type;location;lat;lon;timestamp;P1;durP1;ratioP1;P2;durP2;ratioP2
44222;SDS011;29895;48.804;9.386;2023-09-07T00:01:07;8.30;;;4.40;;
44222;SDS011;29895;48.804;9.386;2023-09-07T00:03:33;8.55;;;4.63;;
44222;SDS011;29895;48.804;9.386;2023-09-07T00:05:59;6.95;;;4.75;;
44222;SDS011;29895;48.804;9.386;2023-09-07T00:08:24;5.68;;;4.25;;
44222;SDS011;29895;48.804;9.386;2023-09-07T00:10:50;6.72;;;4.72;;
44222;SDS011;29895;48.804;9.386;2023-09-07T00:13:16;8.38;;;3.58;;
44222;SDS011;29895;48.804;9.386;2023-09-07T00:15:42;8.75;;;4.38;;
44222;SDS011;29895;48.804;9.386;2023-09-07T00:18:08;5.93;;;3.70;;
44222;SDS011;29895;48.804;9.386;2023-09-07T00:20:34;6.65;;;3.60;;
44222;SDS011;29895;48.804;9.386;2023-09-07T00:23:00;5.50;;;4.03;;
44222;SDS011;29895;48.804;9.386;2023-09-07T00:25:26;3.80;;;3.30;;
44222;SDS011;29895;48.804;9.386;2023-09-07T00:27:52;5.40;;;3.65;;
44222;SDS011;29895;48.804;9.386;2023-09-07T00:30:18;7.63;;;4.35;;
44222;SDS011;29895;48.804;9.386;2023-09-07T00:32:44;8.25;;;3.97;;
44222;SDS011;29895;48.804;9.386;2023-09-07T00:35:09;6.00;;;4.30;;
44222;SDS011;29895;48.804;9.386;2023-09-07T00:37:36;5.47;;;4.20;;
44222;SDS011;29895;48.804;9.386;2023-09-07T00:40:03;8.65;;;4.47;;
44222;SDS011;29895;48.804;9.386;2023-09-07T00:42:33;6.68;;;4.47;;
44222;SDS011;29895;48.804;9.386;2023-09-07T00:44:59;5.88;;;4.10;;
44222;SDS011;29895;48.804;9.386;2023-09-07T00:47:25;8.10;;;4.43;;
44222;SDS011;29895;48.804;9.386;2023-09-07T00:49:50;9.57;;;4.22;;
44222;SDS011;29895;48.804;9.386;2023-09-07T00:52:16;8.05;;;4.07;;
44222;SDS011;29895;48.804;9.386;2023-09-07T00:54:43;9.30;;;4.40;;
44222;SDS011;29895;48.804;9.386;2023-09-07T00:57:09;7.90;;;4.50;;
44222;SDS011;29895;48.804;9.386;2023-09-07T00:59:35;6.22;;;4.28;;
44222;SDS011;29895;48.804;9.386;2023-09-07T01:02:01;8.30;;;4.45;;
44222;SDS011;29895;48.804;9.386;2023-09-07T01:04:28;6.05;;;4.20;;
44222;SDS011;29895;48.804;9.386;2023-09-07T01:06:59;6.22;;;3.95;;
44222;SDS011;29895;48.804;9.386;2023-09-07T01:09:33;8.73;;;4.55;;
44222;SDS011;29895;48.804;9.386;2023-09-07T01:12:02;6.40;;;4.45;;
44222;SDS011;29895;48.804;9.386;2023-09-07T01:14:28;6.18;;;4.60;;
44222;SDS011;29895;48.804;9.386;2023-09-07T01:16:53;6.75;;;4.43;;
44222;SDS011;29895;48.804;9.386;2023-09-07T01:19:19;6.38;;;4.53;;
44222;SDS011;29895;48.804;9.386;2023-09-07T01:21:45;8.90;;;3.97;;
44222;SDS011;29895;48.804;9.386;2023-09-07T01:24:11;5.28;;;4.00;;
44222;SDS011;29895;48.804;9.386;2023-09-07T01:26:39;12.52;;;4.47;;
44222;SDS011;29895;48.804;9.386;2023-09-07T01:29:05;9.93;;;4.75;;
44222;SDS011;29895;48.804;9.386;2023-09-07T01:31:34;8.80;;;4.25;;
44222;SDS011;29895;48.804;9.386;2023-09-07T01:34:03;7.43;;;4.43;;
44222;SDS011;29895;48.804;9.386;2023-09-07T01:36:32;6.78;;;4.93;;
44222;SDS011;29895;48.804;9.386;2023-09-07T01:38:57;8.93;;;4.75;;
44222;SDS011;29895;48.804;9.386;2023-09-07T01:41:23;5.75;;;4.22;;
44222;SDS011;29895;48.804;9.386;2023-09-07T01:43:49;9.43;;;4.70;;
44222;SDS011;29895;48.804;9.386;2023-09-07T01:46:14;9.65;;;4.85;;
44222;SDS011;29895;48.804;9.386;2023-09-07T01:48:40;8.07;;;4.20;;
44222;SDS011;29895;48.804;9.386;2023-09-07T01:51:07;7.28;;;4.50;;
44222;SDS011;29895;48.804;9.386;2023-09-07T01:53:33;5.63;;;4.25;;
44222;SDS011;29895;48.804;9.386;2023-09-07T01:55:58;11.82;;;4.40;;
44222;SDS011;29895;48.804;9.386;2023-09-07T01:58:24;12.68;;;4.60;;
44222;SDS011;29895;48.804;9.386;2023-09-07T02:00:50;7.47;;;5.05;;
44222;SDS011;29895;48.804;9.386;2023-09-07T02:03:17;6.45;;;4.28;;
44222;SDS011;29895;48.804;9.386;2023-09-07T02:05:45;8.52;;;4.88;;
44222;SDS011;29895;48.804;9.386;2023-09-07T02:08:11;9.07;;;4.88;;
44222;SDS011;29895;48.804;9.386;2023-09-07T02:10:37;7.50;;;5.07;;
44222;SDS011;29895;48.804;9.386;2023-09-07T02:13:02;8.05;;;4.75;;
44222;SDS011;29895;48.804;9.386;2023-09-07T02:15:28;7.47;;;4.50;;
44222;SDS011;29895;48.804;9.386;2023-09-07T02:17:54;6.30;;;4.60;;
44222;SDS011;29895;48.804;9.386;2023-09-07T02:20:20;6.05;;;4.25;;
44222;SDS011;29895;48.804;9.386;2023-09-07T02:22:45;9.23;;;5.07;;
44222;SDS011;29895;48.804;9.386;2023-09-07T02:25:11;7.03;;;4.60;;
44222;SDS011;29895;48.804;9.386;2023-09-07T02:27:37;6.85;;;4.55;;
44222;SDS011;29895;48.804;9.386;2023-09-07T02:30:03;8.40;;;4.65;;
44222;SDS011;29895;48.804;9.386;2023-09-07T02:32:29;7.32;;;4.82;;
44222;SDS011;29895;48.804;9.386;2023-09-07T02:34:55;9.15;;;5.28;;
44222;SDS011;29895;48.804;9.386;2023-09-07T02:37:20;7.38;;;4.75;;
44222;SDS011;29895;48.804;9.386;2023-09-07T02:39:46;10.30;;;4.93;;
44222;SDS011;29895;48.804;9.386;2023-09-07T02:42:11;6.13;;;4.53;;
44222;SDS011;29895;48.804;9.386;2023-09-07T02:44:37;7.03;;;4.60;;
44222;SDS011;29895;48.804;9.386;2023-09-07T02:47:03;6.32;;;4.88;;
44222;SDS011;29895;48.804;9.386;2023-09-07T02:49:29;6.88;;;4.68;;
44222;SDS011;29895;48.804;9.386;2023-09-07T02:51:54;7.68;;;4.70;;
44222;SDS011;29895;48.804;9.386;2023-09-07T02:54:20;9.32;;;5.20;;
44222;SDS011;29895;48.804;9.386;2023-09-07T02:56:45;6.20;;;4.65;;
44222;SDS011;29895;48.804;9.386;2023-09-07T02:59:11;8.95;;;4.97;;
44222;SDS011;29895;48.804;9.386;2023-09-07T03:01:38;8.52;;;4.90;;
44222;SDS011;29895;48.804;9.386;2023-09-07T03:04:04;7.03;;;4.88;;
44222;SDS011;29895;48.804;9.386;2023-09-07T03:06:30;7.22;;;5.38;;
44222;SDS011;29895;48.804;9.386;2023-09-07T03:08:56;5.88;;;4.28;;
44222;SDS011;29895;48.804;9.386;2023-09-07T03:11:22;8.80;;;4.70;;
44222;SDS011;29895;48.804;9.386;2023-09-07T03:13:48;11.27;;;5.95;;
44222;SDS011;29895;48.804;9.386;2023-09-07T03:16:14;9.77;;;5.63;;
44222;SDS011;29895;48.804;9.386;2023-09-07T03:18:39;8.15;;;5.55;;
44222;SDS011;29895;48.804;9.386;2023-09-07T03:21:05;6.70;;;5.30;;
44222;SDS011;29895;48.804;9.386;2023-09-07T03:23:31;11.73;;;5.38;;
44222;SDS011;29895;48.804;9.386;2023-09-07T03:25:58;9.98;;;5.82;;
44222;SDS011;29895;48.804;9.386;2023-09-07T03:28:27;8.88;;;5.85;;
44222;SDS011;29895;48.804;9.386;2023-09-07T03:30:53;7.53;;;5.72;;
44222;SDS011;29895;48.804;9.386;2023-09-07T03:33:19;7.28;;;5.53;;
44222;SDS011;29895;48.804;9.386;2023-09-07T03:35:45;9.48;;;5.35;;
44222;SDS011;29895;48.804;9.386;2023-09-07T03:38:12;9.23;;;5.57;;
44222;SDS011;29895;48.804;9.386;2023-09-07T03:40:38;9.70;;;5.60;;
44222;SDS011;29895;48.804;9.386;2023-09-07T03:43:04;9.48;;;5.15;;
44222;SDS011;29895;48.804;9.386;2023-09-07T03:45:29;10.82;;;5.75;;
44222;SDS011;29895;48.804;9.386;2023-09-07T03:47:55;13.60;;;5.88;;
44222;SDS011;29895;48.804;9.386;2023-09-07T03:50:21;7.05;;;5.38;;
44222;SDS011;29895;48.804;9.386;2023-09-07T03:52:47;7.65;;;5.35;;
44222;SDS011;29895;48.804;9.386;2023-09-07T03:55:12;9.65;;;6.07;;
44222;SDS011;29895;48.804;9.386;2023-09-07T03:57:39;7.78;;;5.65;;
44222;SDS011;29895;48.804;9.386;2023-09-07T04:00:06;11.52;;;6.10;;
44222;SDS011;29895;48.804;9.386;2023-09-07T04:02:33;7.07;;;5.68;;
44222;SDS011;29895;48.804;9.386;2023-09-07T04:04:59;9.52;;;5.78;;
44222;SDS011;29895;48.804;9.386;2023-09-07T04:07:27;9.02;;;6.05;;
44222;SDS011;29895;48.804;9.386;2023-09-07T04:09:52;8.95;;;6.15;;
44222;SDS011;29895;48.804;9.386;2023-09-07T04:12:18;10.13;;;6.05;;
44222;SDS011;29895;48.804;9.386;2023-09-07T04:14:44;9.70;;;6.20;;
44222;SDS011;29895;48.804;9.386;2023-09-07T04:17:09;11.02;;;6.45;;
44222;SDS011;29895;48.804;9.386;2023-09-07T04:19:35;8.68;;;5.72;;
44222;SDS011;29895;48.804;9.386;2023-09-07T04:22:01;10.07;;;6.65;;
44222;SDS011;29895;48.804;9.386;2023-09-07T04:24:27;9.18;;;5.63;;
44222;SDS011;29895;48.804;9.386;2023-09-07T04:26:53;8.18;;;5.80;;
44222;SDS011;29895;48.804;9.386;2023-09-07T04:29:23;13.80;;;5.90;;
44222;SDS011;29895;48.804;9.386;2023-09-07T04:31:49;9.88;;;6.40;;
44222;SDS011;29895;48.804;9.386;2023-09-07T04:34:14;8.55;;;6.00;;
44222;SDS011;29895;48.804;9.386;2023-09-07T04:36:40;8.43;;;6.20;;
44222;SDS011;29895;48.804;9.386;2023-09-07T04:39:06;10.90;;;6.75;;
44222;SDS011;29895;48.804;9.386;2023-09-07T04:41:31;9.77;;;6.95;;
44222;SDS011;29895;48.804;9.386;2023-09-07T04:43:57;12.98;;;7.35;;
44222;SDS011;29895;48.804;9.386;2023-09-07T04:46:23;11.13;;;6.68;;
44222;SDS011;29895;48.804;9.386;2023-09-07T04:48:48;8.85;;;7.13;;
44222;SDS011;29895;48.804;9.386;2023-09-07T04:51:14;10.00;;;6.55;;
44222;SDS011;29895;48.804;9.386;2023-09-07T04:53:40;10.55;;;6.82;;
44222;SDS011;29895;48.804;9.386;2023-09-07T04:56:06;11.57;;;6.85;;
44222;SDS011;29895;48.804;9.386;2023-09-07T04:58:33;10.00;;;6.10;;
44222;SDS011;29895;48.804;9.386;2023-09-07T05:01:02;6.55;;;5.35;;
44222;SDS011;29895;48.804;9.386;2023-09-07T05:03:29;10.68;;;6.38;;
44222;SDS011;29895;48.804;9.386;2023-09-07T05:05:55;8.43;;;6.28;;
44222;SDS011;29895;48.804;9.386;2023-09-07T05:08:21;9.95;;;6.65;;
44222;SDS011;29895;48.804;9.386;2023-09-07T05:10:54;9.75;;;6.80;;
44222;SDS011;29895;48.804;9.386;2023-09-07T05:13:27;10.55;;;6.72;;
44222;SDS011;29895;48.804;9.386;2023-09-07T05:15:54;14.00;;;7.07;;
44222;SDS011;29895;48.804;9.386;2023-09-07T05:18:20;8.30;;;6.47;;
44222;SDS011;29895;48.804;9.386;2023-09-07T05:20:47;15.52;;;7.22;;
44222;SDS011;29895;48.804;9.386;2023-09-07T05:25:45;12.73;;;7.43;;
44222;SDS011;29895;48.804;9.386;2023-09-07T05:28:17;10.63;;;7.60;;
44222;SDS011;29895;48.804;9.386;2023-09-07T05:30:43;10.20;;;6.68;;
44222;SDS011;29895;48.804;9.386;2023-09-07T05:33:09;10.13;;;6.53;;
44222;SDS011;29895;48.804;9.386;2023-09-07T05:35:36;9.13;;;5.70;;
44222;SDS011;29895;48.804;9.386;2023-09-07T05:38:02;10.30;;;6.30;;
44222;SDS011;29895;48.804;9.386;2023-09-07T05:40:28;8.13;;;5.57;;
44222;SDS011;29895;48.804;9.386;2023-09-07T05:42:54;7.53;;;5.55;;
44222;SDS011;29895;48.804;9.386;2023-09-07T05:45:20;12.48;;;5.90;;
44222;SDS011;29895;48.804;9.386;2023-09-07T05:47:46;11.88;;;5.90;;
44222;SDS011;29895;48.804;9.386;2023-09-07T05:50:11;8.77;;;4.88;;
44222;SDS011;29895;48.804;9.386;2023-09-07T05:52:37;8.48;;;5.53;;
44222;SDS011;29895;48.804;9.386;2023-09-07T05:55:03;5.65;;;4.45;;
44222;SDS011;29895;48.804;9.386;2023-09-07T05:57:29;8.45;;;4.70;;
44222;SDS011;29895;48.804;9.386;2023-09-07T05:59:54;9.13;;;4.78;;
44222;SDS011;29895;48.804;9.386;2023-09-07T06:02:20;6.97;;;4.85;;
44222;SDS011;29895;48.804;9.386;2023-09-07T06:04:45;10.32;;;4.80;;
44222;SDS011;29895;48.804;9.386;2023-09-07T06:07:11;5.72;;;4.20;;
44222;SDS011;29895;48.804;9.386;2023-09-07T06:09:37;7.28;;;4.55;;
44222;SDS011;29895;48.804;9.386;2023-09-07T06:12:02;6.97;;;4.13;;
44222;SDS011;29895;48.804;9.386;2023-09-07T06:14:28;5.50;;;4.20;;
44222;SDS011;29895;48.804;9.386;2023-09-07T06:16:54;8.15;;;4.80;;
44222;SDS011;29895;48.804;9.386;2023-09-07T06:19:20;5.97;;;4.20;;
44222;SDS011;29895;48.804;9.386;2023-09-07T06:21:46;9.25;;;4.38;;
44222;SDS011;29895;48.804;9.386;2023-09-07T06:24:12;7.65;;;4.60;;
44222;SDS011;29895;48.804;9.386;2023-09-07T06:26:37;7.70;;;4.55;;
44222;SDS011;29895;48.804;9.386;2023-09-07T06:29:03;6.13;;;4.85;;
44222;SDS011;29895;48.804;9.386;2023-09-07T06:31:29;9.88;;;4.88;;
44222;SDS011;29895;48.804;9.386;2023-09-07T06:33:54;4.88;;;4.20;;
44222;SDS011;29895;48.804;9.386;2023-09-07T06:36:20;6.53;;;4.10;;
44222;SDS011;29895;48.804;9.386;2023-09-07T06:38:45;9.75;;;4.45;;
44222;SDS011;29895;48.804;9.386;2023-09-07T06:41:11;7.53;;;4.75;;
44222;SDS011;29895;48.804;9.386;2023-09-07T06:43:37;6.75;;;4.50;;
44222;SDS011;29895;48.804;9.386;2023-09-07T06:46:06;10.38;;;6.65;;
44222;SDS011;29895;48.804;9.386;2023-09-07T06:48:34;7.07;;;4.80;;
44222;SDS011;29895;48.804;9.386;2023-09-07T06:51:03;6.97;;;4.07;;
44222;SDS011;29895;48.804;9.386;2023-09-07T06:53:29;8.73;;;4.50;;
44222;SDS011;29895;48.804;9.386;2023-09-07T06:55:59;7.82;;;4.45;;
44222;SDS011;29895;48.804;9.386;2023-09-07T06:58:25;8.82;;;4.97;;
44222;SDS011;29895;48.804;9.386;2023-09-07T07:00:51;5.88;;;4.75;;
44222;SDS011;29895;48.804;9.386;2023-09-07T07:03:16;10.13;;;4.28;;
44222;SDS011;29895;48.804;9.386;2023-09-07T07:05:42;8.10;;;4.13;;
44222;SDS011;29895;48.804;9.386;2023-09-07T07:08:09;8.43;;;4.55;;
44222;SDS011;29895;48.804;9.386;2023-09-07T07:10:35;6.15;;;4.35;;
44222;SDS011;29895;48.804;9.386;2023-09-07T07:13:00;8.77;;;5.22;;
44222;SDS011;29895;48.804;9.386;2023-09-07T07:15:26;12.05;;;4.93;;
44222;SDS011;29895;48.804;9.386;2023-09-07T07:17:51;6.07;;;4.35;;
44222;SDS011;29895;48.804;9.386;2023-09-07T07:20:17;5.82;;;4.30;;
44222;SDS011;29895;48.804;9.386;2023-09-07T07:22:43;6.40;;;4.35;;
44222;SDS011;29895;48.804;9.386;2023-09-07T07:25:10;7.57;;;4.32;;
44222;SDS011;29895;48.804;9.386;2023-09-07T07:27:36;8.20;;;4.88;;
44222;SDS011;29895;48.804;9.386;2023-09-07T07:30:01;7.40;;;5.20;;
44222;SDS011;29895;48.804;9.386;2023-09-07T07:32:28;7.97;;;5.18;;
44222;SDS011;29895;48.804;9.386;2023-09-07T07:34:53;12.40;;;4.75;;
44222;SDS011;29895;48.804;9.386;2023-09-07T07:37:19;9.23;;;4.80;;
44222;SDS011;29895;48.804;9.386;2023-09-07T07:39:45;11.02;;;5.30;;
44222;SDS011;29895;48.804;9.386;2023-09-07T07:42:10;7.80;;;5.50;;
44222;SDS011;29895;48.804;9.386;2023-09-07T07:44:37;7.13;;;5.25;;
44222;SDS011;29895;48.804;9.386;2023-09-07T07:47:03;8.80;;;5.07;;
44222;SDS011;29895;48.804;9.386;2023-09-07T07:49:28;8.77;;;5.53;;
44222;SDS011;29895;48.804;9.386;2023-09-07T07:51:54;10.20;;;5.53;;
44222;SDS011;29895;48.804;9.386;2023-09-07T07:54:23;9.05;;;5.25;;
44222;SDS011;29895;48.804;9.386;2023-09-07T07:56:50;10.10;;;5.13;;
44222;SDS011;29895;48.804;9.386;2023-09-07T07:59:15;9.40;;;5.47;;
44222;SDS011;29895;48.804;9.386;2023-09-07T08:01:41;7.53;;;5.50;;
44222;SDS011;29895;48.804;9.386;2023-09-07T08:04:08;8.20;;;5.47;;
44222;SDS011;29895;48.804;9.386;2023-09-07T08:06:33;8.57;;;5.13;;
44222;SDS011;29895;48.804;9.386;2023-09-07T08:08:59;9.38;;;5.43;;
44222;SDS011;29895;48.804;9.386;2023-09-07T08:11:25;8.00;;;5.97;;
44222;SDS011;29895;48.804;9.386;2023-09-07T08:13:52;11.13;;;5.28;;
44222;SDS011;29895;48.804;9.386;2023-09-07T08:16:17;5.78;;;4.70;;
44222;SDS011;29895;48.804;9.386;2023-09-07T08:18:43;10.10;;;5.13;;
44222;SDS011;29895;48.804;9.386;2023-09-07T08:21:09;11.48;;;6.07;;
44222;SDS011;29895;48.804;9.386;2023-09-07T08:23:35;7.07;;;5.30;;
44222;SDS011;29895;48.804;9.386;2023-09-07T08:26:01;8.05;;;5.57;;
44222;SDS011;29895;48.804;9.386;2023-09-07T08:28:28;9.48;;;5.25;;
44222;SDS011;29895;48.804;9.386;2023-09-07T08:30:54;7.40;;;5.35;;
44222;SDS011;29895;48.804;9.386;2023-09-07T08:33:23;8.27;;;4.95;;
44222;SDS011;29895;48.804;9.386;2023-09-07T08:35:53;8.85;;;5.50;;
44222;SDS011;29895;48.804;9.386;2023-09-07T08:38:22;12.23;;;5.60;;
44222;SDS011;29895;48.804;9.386;2023-09-07T08:40:51;10.23;;;5.30;;
44222;SDS011;29895;48.804;9.386;2023-09-07T08:43:20;8.98;;;5.40;;
44222;SDS011;29895;48.804;9.386;2023-09-07T08:45:48;9.38;;;5.18;;
44222;SDS011;29895;48.804;9.386;2023-09-07T08:48:16;7.90;;;5.93;;
44222;SDS011;29895;48.804;9.386;2023-09-07T08:50:44;9.35;;;5.68;;
44222;SDS011;29895;48.804;9.386;2023-09-07T08:53:15;7.53;;;6.05;;
44222;SDS011;29895;48.804;9.386;2023-09-07T08:55:45;8.50;;;5.25;;
44222;SDS011;29895;48.804;9.386;2023-09-07T08:58:10;8.63;;;5.22;;
44222;SDS011;29895;48.804;9.386;2023-09-07T09:00:36;7.53;;;5.30;;
44222;SDS011;29895;48.804;9.386;2023-09-07T09:03:03;10.07;;;6.05;;
44222;SDS011;29895;48.804;9.386;2023-09-07T09:05:29;10.93;;;6.28;;
44222;SDS011;29895;48.804;9.386;2023-09-07T09:08:04;7.65;;;5.80;;
44222;SDS011;29895;48.804;9.386;2023-09-07T09:10:31;9.68;;;5.68;;
44222;SDS011;29895;48.804;9.386;2023-09-07T09:12:56;10.57;;;5.53;;
44222;SDS011;29895;48.804;9.386;2023-09-07T09:15:24;8.35;;;5.45;;
44222;SDS011;29895;48.804;9.386;2023-09-07T09:17:52;6.20;;;4.93;;
44222;SDS011;29895;48.804;9.386;2023-09-07T09:22:52;8.90;;;5.78;;
44222;SDS011;29895;48.804;9.386;2023-09-07T09:25:19;7.22;;;5.25;;
44222;SDS011;29895;48.804;9.386;2023-09-07T09:27:46;6.70;;;5.40;;
44222;SDS011;29895;48.804;9.386;2023-09-07T09:30:14;8.32;;;5.47;;
44222;SDS011;29895;48.804;9.386;2023-09-07T09:32:41;8.45;;;5.63;;
44222;SDS011;29895;48.804;9.386;2023-09-07T09:35:08;7.10;;;5.03;;
44222;SDS011;29895;48.804;9.386;2023-09-07T09:37:42;9.38;;;6.15;;
44222;SDS011;29895;48.804;9.386;2023-09-07T09:40:12;7.60;;;5.65;;
44222;SDS011;29895;48.804;9.386;2023-09-07T09:42:40;8.32;;;5.30;;
44222;SDS011;29895;48.804;9.386;2023-09-07T09:45:07;6.18;;;5.40;;
44222;SDS011;29895;48.804;9.386;2023-09-07T09:47:34;10.88;;;4.97;;
44222;SDS011;29895;48.804;9.386;2023-09-07T09:50:04;8.00;;;5.72;;
44222;SDS011;29895;48.804;9.386;2023-09-07T09:52:31;7.68;;;5.47;;
44222;SDS011;29895;48.804;9.386;2023-09-07T09:55:00;8.80;;;5.13;;
44222;SDS011;29895;48.804;9.386;2023-09-07T09:57:26;9.25;;;4.70;;
44222;SDS011;29895;48.804;9.386;2023-09-07T09:59:54;7.22;;;4.85;;
44222;SDS011;29895;48.804;9.386;2023-09-07T10:02:20;8.82;;;5.60;;
44222;SDS011;29895;48.804;9.386;2023-09-07T10:04:46;9.20;;;5.47;;
44222;SDS011;29895;48.804;9.386;2023-09-07T10:07:13;8.57;;;5.32;;
44222;SDS011;29895;48.804;9.386;2023-09-07T10:09:38;9.30;;;5.35;;
44222;SDS011;29895;48.804;9.386;2023-09-07T10:12:04;8.45;;;5.20;;
44222;SDS011;29895;48.804;9.386;2023-09-07T10:14:39;8.55;;;5.38;;
44222;SDS011;29895;48.804;9.386;2023-09-07T10:17:06;6.57;;;5.07;;
44222;SDS011;29895;48.804;9.386;2023-09-07T10:19:34;7.05;;;5.07;;
44222;SDS011;29895;48.804;9.386;2023-09-07T10:22:02;10.10;;;5.10;;
44222;SDS011;29895;48.804;9.386;2023-09-07T10:24:32;8.38;;;5.63;;
44222;SDS011;29895;48.804;9.386;2023-09-07T10:27:02;7.97;;;4.60;;
44222;SDS011;29895;48.804;9.386;2023-09-07T10:29:39;8.30;;;5.32;;
44222;SDS011;29895;48.804;9.386;2023-09-07T10:32:15;11.15;;;4.93;;
44222;SDS011;29895;48.804;9.386;2023-09-07T10:34:41;6.32;;;4.90;;
44222;SDS011;29895;48.804;9.386;2023-09-07T10:37:10;8.70;;;4.97;;
44222;SDS011;29895;48.804;9.386;2023-09-07T10:39:38;8.95;;;4.85;;
44222;SDS011;29895;48.804;9.386;2023-09-07T10:42:05;5.80;;;5.03;;
44222;SDS011;29895;48.804;9.386;2023-09-07T10:44:30;6.32;;;4.85;;
44222;SDS011;29895;48.804;9.386;2023-09-07T10:46:56;7.30;;;5.10;;
44222;SDS011;29895;48.804;9.386;2023-09-07T10:49:23;6.90;;;4.82;;
44222;SDS011;29895;48.804;9.386;2023-09-07T10:51:49;6.57;;;4.70;;
44222;SDS011;29895;48.804;9.386;2023-09-07T10:54:15;7.30;;;4.88;;
44222;SDS011;29895;48.804;9.386;2023-09-07T10:56:48;5.68;;;4.35;;
44222;SDS011;29895;48.804;9.386;2023-09-07T10:59:15;6.35;;;5.15;;
44222;SDS011;29895;48.804;9.386;2023-09-07T11:01:45;6.05;;;4.70;;
44222;SDS011;29895;48.804;9.386;2023-09-07T11:04:11;5.47;;;4.32;;
44222;SDS011;29895;48.804;9.386;2023-09-07T11:06:37;6.38;;;4.88;;
44222;SDS011;29895;48.804;9.386;2023-09-07T11:09:04;6.65;;;4.88;;
44222;SDS011;29895;48.804;9.386;2023-09-07T11:11:33;5.20;;;4.55;;
44222;SDS011;29895;48.804;9.386;2023-09-07T11:13:59;5.45;;;4.75;;
44222;SDS011;29895;48.804;9.386;2023-09-07T11:16:26;7.90;;;4.90;;
44222;SDS011;29895;48.804;9.386;2023-09-07T11:18:52;11.93;;;5.03;;
44222;SDS011;29895;48.804;9.386;2023-09-07T11:21:19;7.65;;;4.88;;
44222;SDS011;29895;48.804;9.386;2023-09-07T11:23:45;9.02;;;5.18;;
44222;SDS011;29895;48.804;9.386;2023-09-07T11:26:11;7.30;;;4.88;;
44222;SDS011;29895;48.804;9.386;2023-09-07T11:28:37;6.05;;;4.72;;
44222;SDS011;29895;48.804;9.386;2023-09-07T11:31:03;7.82;;;4.47;;
44222;SDS011;29895;48.804;9.386;2023-09-07T11:33:32;6.38;;;4.28;;
44222;SDS011;29895;48.804;9.386;2023-09-07T11:35:59;6.82;;;4.93;;
44222;SDS011;29895;48.804;9.386;2023-09-07T11:38:28;6.82;;;4.07;;
44222;SDS011;29895;48.804;9.386;2023-09-07T11:40:55;5.70;;;4.30;;
44222;SDS011;29895;48.804;9.386;2023-09-07T11:43:21;6.80;;;4.63;;
44222;SDS011;29895;48.804;9.386;2023-09-07T11:45:48;5.45;;;4.95;;
44222;SDS011;29895;48.804;9.386;2023-09-07T11:48:14;5.90;;;4.38;;
44222;SDS011;29895;48.804;9.386;2023-09-07T11:50:40;7.50;;;4.40;;
44222;SDS011;29895;48.804;9.386;2023-09-07T11:53:06;5.43;;;4.18;;
44222;SDS011;29895;48.804;9.386;2023-09-07T11:55:32;10.48;;;4.50;;
44222;SDS011;29895;48.804;9.386;2023-09-07T11:57:59;7.45;;;4.72;;
44222;SDS011;29895;48.804;9.386;2023-09-07T12:00:25;5.32;;;4.05;;
44222;SDS011;29895;48.804;9.386;2023-09-07T12:02:51;6.40;;;3.97;;
44222;SDS011;29895;48.804;9.386;2023-09-07T12:05:16;4.97;;;3.90;;
44222;SDS011;29895;48.804;9.386;2023-09-07T12:07:44;12.00;;;4.70;;
44222;SDS011;29895;48.804;9.386;2023-09-07T12:10:10;6.15;;;3.88;;
44222;SDS011;29895;48.804;9.386;2023-09-07T12:12:36;7.88;;;4.15;;
44222;SDS011;29895;48.804;9.386;2023-09-07T12:15:02;7.20;;;4.15;;
44222;SDS011;29895;48.804;9.386;2023-09-07T12:17:29;8.88;;;4.38;;
44222;SDS011;29895;48.804;9.386;2023-09-07T12:19:55;6.95;;;4.32;;
44222;SDS011;29895;48.804;9.386;2023-09-07T12:22:21;8.07;;;4.00;;
44222;SDS011;29895;48.804;9.386;2023-09-07T12:24:47;5.53;;;4.40;;
44222;SDS011;29895;48.804;9.386;2023-09-07T12:27:12;5.38;;;4.18;;
44222;SDS011;29895;48.804;9.386;2023-09-07T12:29:38;6.07;;;4.57;;
44222;SDS011;29895;48.804;9.386;2023-09-07T12:32:03;9.18;;;3.97;;
44222;SDS011;29895;48.804;9.386;2023-09-07T12:34:29;6.68;;;4.32;;
44222;SDS011;29895;48.804;9.386;2023-09-07T12:36:55;6.07;;;3.78;;
44222;SDS011;29895;48.804;9.386;2023-09-07T12:39:21;7.80;;;4.00;;
44222;SDS011;29895;48.804;9.386;2023-09-07T12:41:46;6.20;;;4.38;;
44222;SDS011;29895;48.804;9.386;2023-09-07T12:44:12;5.68;;;3.70;;
44222;SDS011;29895;48.804;9.386;2023-09-07T12:46:38;7.95;;;4.45;;
44222;SDS011;29895;48.804;9.386;2023-09-07T12:49:04;8.27;;;4.13;;
44222;SDS011;29895;48.804;9.386;2023-09-07T12:51:29;4.93;;;3.88;;
44222;SDS011;29895;48.804;9.386;2023-09-07T12:53:56;7.45;;;4.50;;
44222;SDS011;29895;48.804;9.386;2023-09-07T12:56:21;8.18;;;4.18;;
44222;SDS011;29895;48.804;9.386;2023-09-07T12:58:47;5.85;;;4.38;;
44222;SDS011;29895;48.804;9.386;2023-09-07T13:01:14;8.85;;;4.18;;
44222;SDS011;29895;48.804;9.386;2023-09-07T13:03:41;7.15;;;3.90;;
44222;SDS011;29895;48.804;9.386;2023-09-07T13:06:07;8.40;;;3.97;;
44222;SDS011;29895;48.804;9.386;2023-09-07T13:08:33;7.18;;;4.32;;
44222;SDS011;29895;48.804;9.386;2023-09-07T13:10:59;5.13;;;3.55;;
44222;SDS011;29895;48.804;9.386;2023-09-07T13:13:25;5.65;;;3.97;;
44222;SDS011;29895;48.804;9.386;2023-09-07T13:15:53;6.63;;;4.15;;
44222;SDS011;29895;48.804;9.386;2023-09-07T13:18:22;5.00;;;4.05;;
44222;SDS011;29895;48.804;9.386;2023-09-07T13:20:48;6.30;;;3.78;;
44222;SDS011;29895;48.804;9.386;2023-09-07T13:23:16;5.70;;;4.40;;
44222;SDS011;29895;48.804;9.386;2023-09-07T13:25:43;6.45;;;4.70;;
44222;SDS011;29895;48.804;9.386;2023-09-07T13:28:08;4.57;;;3.78;;
44222;SDS011;29895;48.804;9.386;2023-09-07T13:30:34;6.50;;;4.43;;
44222;SDS011;29895;48.804;9.386;2023-09-07T13:32:59;4.75;;;3.65;;
44222;SDS011;29895;48.804;9.386;2023-09-07T13:35:25;7.05;;;4.18;;
44222;SDS011;29895;48.804;9.386;2023-09-07T13:37:51;7.47;;;4.07;;
44222;SDS011;29895;48.804;9.386;2023-09-07T13:40:17;6.18;;;3.95;;
44222;SDS011;29895;48.804;9.386;2023-09-07T13:42:44;8.13;;;3.85;;
44222;SDS011;29895;48.804;9.386;2023-09-07T13:45:10;6.22;;;4.15;;
44222;SDS011;29895;48.804;9.386;2023-09-07T13:47:36;6.82;;;4.05;;
44222;SDS011;29895;48.804;9.386;2023-09-07T13:50:03;7.15;;;4.30;;
44222;SDS011;29895;48.804;9.386;2023-09-07T13:52:29;5.97;;;4.20;;
44222;SDS011;29895;48.804;9.386;2023-09-07T13:54:54;5.43;;;4.05;;
44222;SDS011;29895;48.804;9.386;2023-09-07T13:57:20;4.45;;;3.88;;
44222;SDS011;29895;48.804;9.386;2023-09-07T13:59:46;6.40;;;4.38;;
44222;SDS011;29895;48.804;9.386;2023-09-07T14:02:11;5.15;;;4.03;;
44222;SDS011;29895;48.804;9.386;2023-09-07T14:04:37;6.00;;;4.15;;
44222;SDS011;29895;48.804;9.386;2023-09-07T14:07:02;5.18;;;4.10;;
44222;SDS011;29895;48.804;9.386;2023-09-07T14:09:28;6.43;;;3.92;;
44222;SDS011;29895;48.804;9.386;2023-09-07T14:11:54;5.97;;;4.30;;
44222;SDS011;29895;48.804;9.386;2023-09-07T14:14:19;5.22;;;3.78;;
44222;SDS011;29895;48.804;9.386;2023-09-07T14:16:46;8.10;;;4.18;;
44222;SDS011;29895;48.804;9.386;2023-09-07T14:19:11;4.80;;;4.18;;
44222;SDS011;29895;48.804;9.386;2023-09-07T14:21:37;6.22;;;4.70;;
44222;SDS011;29895;48.804;9.386;2023-09-07T14:24:03;7.00;;;4.18;;
44222;SDS011;29895;48.804;9.386;2023-09-07T14:26:29;8.10;;;4.15;;
44222;SDS011;29895;48.804;9.386;2023-09-07T14:28:54;8.75;;;4.07;;
44222;SDS011;29895;48.804;9.386;2023-09-07T14:31:20;5.95;;;4.00;;
44222;SDS011;29895;48.804;9.386;2023-09-07T14:33:46;7.13;;;3.88;;
44222;SDS011;29895;48.804;9.386;2023-09-07T14:36:11;4.95;;;3.90;;
44222;SDS011;29895;48.804;9.386;2023-09-07T14:38:38;7.13;;;4.47;;
44222;SDS011;29895;48.804;9.386;2023-09-07T14:41:07;5.70;;;4.35;;
44222;SDS011;29895;48.804;9.386;2023-09-07T14:43:36;7.88;;;4.15;;
44222;SDS011;29895;48.804;9.386;2023-09-07T14:46:02;8.27;;;4.38;;